sensor_id;sensor_type;location;lat;lon;timestamp;P1;durP1;ratioP1;P2;durP2;ratioP2
13218;SDS011;6674;49.152;11.918;2023-02-01T00:01:54;7.47;;;5.70;;
13218;SDS011;6674;49.152;11.918;2023-02-01T00:04:21;5.47;;;4.97;;
13218;SDS011;6674;49.152;11.918;2023-02-01T00:06:48;5.67;;;4.80;;
13218;SDS011;6674;49.152;11.918;2023-02-01T00:09:15;5.37;;;4.87;;
13218;SDS011;6674;49.152;11.918;2023-02-01T00:11:41;5.60;;;5.10;;
13218;SDS011;6674;49.152;11.918;2023-02-01T00:14:08;5.33;;;4.90;;
13218;SDS011;6674;49.152;11.918;2023-02-01T00:16:35;4.90;;;4.50;;
13218;SDS011;6674;49.152;11.918;2023-02-01T00:19:05;4.80;;;4.33;;
13218;SDS011;6674;49.152;11.918;2023-02-01T00:21:33;4.93;;;4.50;;
13218;SDS011;6674;49.152;11.918;2023-02-01T00:24:00;4.50;;;4.10;;
13218;SDS011;6674;49.152;11.918;2023-02-01T00:26:33;5.00;;;4.60;;
13218;SDS011;6674;49.152;11.918;2023-02-01T00:29:02;4.77;;;4.37;;
13218;SDS011;6674;49.152;11.918;2023-02-01T00:31:31;5.20;;;4.50;;
13218;SDS011;6674;49.152;11.918;2023-02-01T00:33:57;5.23;;;4.30;;
13218;SDS011;6674;49.152;11.918;2023-02-01T00:36:25;5.30;;;4.80;;
13218;SDS011;6674;49.152;11.918;2023-02-01T00:38:52;5.30;;;4.80;;
13218;SDS011;6674;49.152;11.918;2023-02-01T00:41:20;5.07;;;4.67;;
13218;SDS011;6674;49.152;11.918;2023-02-01T00:43:47;5.77;;;4.90;;
13218;SDS011;6674;49.152;11.918;2023-02-01T00:46:15;5.50;;;5.00;;
13218;SDS011;6674;49.152;11.918;2023-02-01T00:48:42;5.57;;;5.07;;
13218;SDS011;6674;49.152;11.918;2023-02-01T00:51:10;6.03;;;5.30;;
13218;SDS011;6674;49.152;11.918;2023-02-01T00:53:40;7.10;;;5.43;;
13218;SDS011;6674;49.152;11.918;2023-02-01T00:56:06;6.07;;;5.40;;
13218;SDS011;6674;49.152;11.918;2023-02-01T00:58:34;5.73;;;5.23;;
13218;SDS011;6674;49.152;11.918;2023-02-01T01:01:01;6.00;;;5.40;;
13218;SDS011;6674;49.152;11.918;2023-02-01T01:03:30;6.20;;;5.23;;
13218;SDS011;6674;49.152;11.918;2023-02-01T01:06:06;6.10;;;5.60;;
13218;SDS011;6674;49.152;11.918;2023-02-01T01:08:34;6.03;;;5.43;;
13218;SDS011;6674;49.152;11.918;2023-02-01T01:11:06;6.80;;;6.10;;
13218;SDS011;6674;49.152;11.918;2023-02-01T01:13:36;7.23;;;6.07;;
13218;SDS011;6674;49.152;11.918;2023-02-01T01:16:04;6.90;;;6.20;;
13218;SDS011;6674;49.152;11.918;2023-02-01T01:18:32;6.70;;;5.87;;
13218;SDS011;6674;49.152;11.918;2023-02-01T01:20:59;7.27;;;6.33;;
13218;SDS011;6674;49.152;11.918;2023-02-01T01:23:27;7.03;;;6.33;;
13218;SDS011;6674;49.152;11.918;2023-02-01T01:25:54;6.60;;;6.00;;
13218;SDS011;6674;49.152;11.918;2023-02-01T01:28:22;6.50;;;5.80;;
13218;SDS011;6674;49.152;11.918;2023-02-01T01:30:48;6.57;;;5.97;;
13218;SDS011;6674;49.152;11.918;2023-02-01T01:33:15;7.57;;;6.83;;
13218;SDS011;6674;49.152;11.918;2023-02-01T01:35:42;7.73;;;6.97;;
13218;SDS011;6674;49.152;11.918;2023-02-01T01:38:09;8.20;;;6.90;;
13218;SDS011;6674;49.152;11.918;2023-02-01T01:40:37;7.77;;;6.97;;
13218;SDS011;6674;49.152;11.918;2023-02-01T01:43:05;7.77;;;6.90;;
13218;SDS011;6674;49.152;11.918;2023-02-01T01:45:40;7.53;;;6.70;;
13218;SDS011;6674;49.152;11.918;2023-02-01T01:48:08;7.60;;;6.70;;
13218;SDS011;6674;49.152;11.918;2023-02-01T01:50:40;7.60;;;6.57;;
13218;SDS011;6674;49.152;11.918;2023-02-01T01:53:13;8.37;;;7.13;;
13218;SDS011;6674;49.152;11.918;2023-02-01T01:55:43;7.27;;;6.57;;
13218;SDS011;6674;49.152;11.918;2023-02-01T01:58:12;7.10;;;6.40;;
13218;SDS011;6674;49.152;11.918;2023-02-01T02:00:43;7.10;;;6.40;;
13218;SDS011;6674;49.152;11.918;2023-02-01T02:03:11;7.97;;;7.07;;
13218;SDS011;6674;49.152;11.918;2023-02-01T02:05:42;7.60;;;6.43;;
13218;SDS011;6674;49.152;11.918;2023-02-01T02:08:09;7.00;;;6.30;;
13218;SDS011;6674;49.152;11.918;2023-02-01T02:10:36;7.10;;;6.20;;
13218;SDS011;6674;49.152;11.918;2023-02-01T02:13:21;6.97;;;6.13;;
13218;SDS011;6674;49.152;11.918;2023-02-01T02:15:52;6.30;;;5.70;;
13218;SDS011;6674;49.152;11.918;2023-02-01T02:18:30;6.63;;;5.97;;
13218;SDS011;6674;49.152;11.918;2023-02-01T02:21:10;7.23;;;6.37;;
13218;SDS011;6674;49.152;11.918;2023-02-01T02:26:51;6.33;;;5.73;;
13218;SDS011;6674;49.152;11.918;2023-02-01T02:29:35;6.87;;;6.17;;
13218;SDS011;6674;49.152;11.918;2023-02-01T02:32:53;6.53;;;5.93;;
13218;SDS011;6674;49.152;11.918;2023-02-01T02:35:41;6.43;;;5.83;;
13218;SDS011;6674;49.152;11.918;2023-02-01T02:38:15;5.87;;;5.27;;
13218;SDS011;6674;49.152;11.918;2023-02-01T02:40:48;5.83;;;5.30;;
13218;SDS011;6674;49.152;11.918;2023-02-01T02:43:20;5.73;;;5.20;;
13218;SDS011;6674;49.152;11.918;2023-02-01T02:46:07;4.83;;;4.20;;
13218;SDS011;6674;49.152;11.918;2023-02-01T02:48:58;5.50;;;5.00;;
13218;SDS011;6674;49.152;11.918;2023-02-01T02:51:30;5.40;;;4.90;;
13218;SDS011;6674;49.152;11.918;2023-02-01T02:54:19;5.40;;;4.90;;
13218;SDS011;6674;49.152;11.918;2023-02-01T02:57:08;5.17;;;4.67;;
13218;SDS011;6674;49.152;11.918;2023-02-01T02:59:55;4.73;;;4.20;;
13218;SDS011;6674;49.152;11.918;2023-02-01T03:02:42;4.97;;;4.57;;
13218;SDS011;6674;49.152;11.918;2023-02-01T03:05:32;5.30;;;4.80;;
13218;SDS011;6674;49.152;11.918;2023-02-01T03:08:02;5.23;;;4.73;;
13218;SDS011;6674;49.152;11.918;2023-02-01T03:10:32;5.43;;;4.93;;
13218;SDS011;6674;49.152;11.918;2023-02-01T03:13:04;5.73;;;5.23;;
13218;SDS011;6674;49.152;11.918;2023-02-01T03:15:36;5.47;;;4.60;;
13218;SDS011;6674;49.152;11.918;2023-02-01T03:18:05;5.73;;;5.13;;
13218;SDS011;6674;49.152;11.918;2023-02-01T03:20:38;6.40;;;5.60;;
13218;SDS011;6674;49.152;11.918;2023-02-01T03:23:09;6.67;;;5.57;;
13218;SDS011;6674;49.152;11.918;2023-02-01T03:25:38;6.40;;;5.33;;
13218;SDS011;6674;49.152;11.918;2023-02-01T03:28:11;7.90;;;6.00;;
13218;SDS011;6674;49.152;11.918;2023-02-01T03:30:41;7.67;;;5.87;;
13218;SDS011;6674;49.152;11.918;2023-02-01T03:33:11;6.37;;;5.77;;
13218;SDS011;6674;49.152;11.918;2023-02-01T03:35:50;7.93;;;6.30;;
13218;SDS011;6674;49.152;11.918;2023-02-01T03:38:24;7.13;;;6.43;;
13218;SDS011;6674;49.152;11.918;2023-02-01T03:40:56;6.93;;;6.17;;
13218;SDS011;6674;49.152;11.918;2023-02-01T03:43:29;6.80;;;6.10;;
13218;SDS011;6674;49.152;11.918;2023-02-01T03:46:00;7.50;;;6.80;;
13218;SDS011;6674;49.152;11.918;2023-02-01T03:48:29;7.53;;;6.43;;
13218;SDS011;6674;49.152;11.918;2023-02-01T03:50:58;6.20;;;5.63;;
13218;SDS011;6674;49.152;11.918;2023-02-01T03:53:27;7.57;;;6.00;;
13218;SDS011;6674;49.152;11.918;2023-02-01T03:55:55;6.83;;;6.10;;
13218;SDS011;6674;49.152;11.918;2023-02-01T03:58:23;6.47;;;5.77;;
13218;SDS011;6674;49.152;11.918;2023-02-01T04:00:50;5.83;;;5.23;;
13218;SDS011;6674;49.152;11.918;2023-02-01T04:03:19;7.30;;;5.87;;
13218;SDS011;6674;49.152;11.918;2023-02-01T04:05:46;7.37;;;6.47;;
13218;SDS011;6674;49.152;11.918;2023-02-01T04:08:14;7.30;;;6.20;;
13218;SDS011;6674;49.152;11.918;2023-02-01T04:10:41;7.03;;;5.87;;
13218;SDS011;6674;49.152;11.918;2023-02-01T04:13:09;9.50;;;6.27;;
13218;SDS011;6674;49.152;11.918;2023-02-01T04:15:35;6.60;;;5.90;;
13218;SDS011;6674;49.152;11.918;2023-02-01T04:18:03;8.53;;;6.10;;
13218;SDS011;6674;49.152;11.918;2023-02-01T04:20:30;7.30;;;5.67;;
13218;SDS011;6674;49.152;11.918;2023-02-01T04:22:57;5.93;;;5.40;;
13218;SDS011;6674;49.152;11.918;2023-02-01T04:25:25;6.17;;;5.57;;
13218;SDS011;6674;49.152;11.918;2023-02-01T04:27:52;5.73;;;5.13;;
13218;SDS011;6674;49.152;11.918;2023-02-01T04:30:18;6.33;;;5.30;;
13218;SDS011;6674;49.152;11.918;2023-02-01T04:32:45;5.70;;;5.10;;
13218;SDS011;6674;49.152;11.918;2023-02-01T04:35:12;6.03;;;5.47;;
13218;SDS011;6674;49.152;11.918;2023-02-01T04:37:38;5.43;;;4.93;;
13218;SDS011;6674;49.152;11.918;2023-02-01T04:40:05;5.93;;;5.30;;
13218;SDS011;6674;49.152;11.918;2023-02-01T04:42:36;5.17;;;4.70;;
13218;SDS011;6674;49.152;11.918;2023-02-01T04:45:03;6.50;;;5.57;;
13218;SDS011;6674;49.152;11.918;2023-02-01T04:47:30;6.70;;;6.00;;
13218;SDS011;6674;49.152;11.918;2023-02-01T04:49:57;6.03;;;5.43;;
13218;SDS011;6674;49.152;11.918;2023-02-01T04:52:23;6.10;;;5.10;;
13218;SDS011;6674;49.152;11.918;2023-02-01T04:54:51;5.33;;;4.83;;
13218;SDS011;6674;49.152;11.918;2023-02-01T04:57:22;7.07;;;5.30;;
13218;SDS011;6674;49.152;11.918;2023-02-01T04:59:50;6.20;;;5.40;;
13218;SDS011;6674;49.152;11.918;2023-02-01T05:02:17;5.50;;;4.90;;
13218;SDS011;6674;49.152;11.918;2023-02-01T05:04:43;6.07;;;5.10;;
13218;SDS011;6674;49.152;11.918;2023-02-01T05:07:10;5.10;;;4.60;;
13218;SDS011;6674;49.152;11.918;2023-02-01T05:09:37;5.70;;;4.83;;
13218;SDS011;6674;49.152;11.918;2023-02-01T05:12:04;5.17;;;4.67;;
13218;SDS011;6674;49.152;11.918;2023-02-01T05:14:50;5.17;;;4.67;;
13218;SDS011;6674;49.152;11.918;2023-02-01T05:17:19;4.77;;;4.20;;
13218;SDS011;6674;49.152;11.918;2023-02-01T05:19:45;4.73;;;4.33;;
13218;SDS011;6674;49.152;11.918;2023-02-01T05:22:12;5.00;;;4.60;;
13218;SDS011;6674;49.152;11.918;2023-02-01T05:24:38;5.33;;;4.90;;
13218;SDS011;6674;49.152;11.918;2023-02-01T05:27:06;4.90;;;4.33;;
13218;SDS011;6674;49.152;11.918;2023-02-01T05:29:34;4.60;;;4.20;;
13218;SDS011;6674;49.152;11.918;2023-02-01T05:32:02;5.80;;;4.70;;
13218;SDS011;6674;49.152;11.918;2023-02-01T05:34:28;4.80;;;4.40;;
13218;SDS011;6674;49.152;11.918;2023-02-01T05:36:55;4.33;;;3.93;;
13218;SDS011;6674;49.152;11.918;2023-02-01T05:39:22;5.47;;;4.43;;
13218;SDS011;6674;49.152;11.918;2023-02-01T05:41:48;4.23;;;3.90;;
13218;SDS011;6674;49.152;11.918;2023-02-01T05:44:15;4.67;;;4.27;;
13218;SDS011;6674;49.152;11.918;2023-02-01T05:46:41;4.97;;;4.47;;
13218;SDS011;6674;49.152;11.918;2023-02-01T05:49:09;4.83;;;4.43;;
13218;SDS011;6674;49.152;11.918;2023-02-01T05:51:36;5.13;;;4.33;;
13218;SDS011;6674;49.152;11.918;2023-02-01T05:54:03;4.80;;;4.37;;
13218;SDS011;6674;49.152;11.918;2023-02-01T05:56:29;4.80;;;4.17;;
13218;SDS011;6674;49.152;11.918;2023-02-01T05:58:56;4.87;;;4.40;;
13218;SDS011;6674;49.152;11.918;2023-02-01T06:01:23;5.57;;;4.57;;
13218;SDS011;6674;49.152;11.918;2023-02-01T06:03:49;4.80;;;4.40;;
13218;SDS011;6674;49.152;11.918;2023-02-01T06:06:17;4.97;;;4.50;;
13218;SDS011;6674;49.152;11.918;2023-02-01T06:08:45;4.87;;;4.47;;
13218;SDS011;6674;49.152;11.918;2023-02-01T06:11:12;5.80;;;4.90;;
13218;SDS011;6674;49.152;11.918;2023-02-01T06:13:39;5.13;;;4.27;;
13218;SDS011;6674;49.152;11.918;2023-02-01T06:16:06;4.70;;;4.30;;
13218;SDS011;6674;49.152;11.918;2023-02-01T06:18:33;4.60;;;4.20;;
13218;SDS011;6674;49.152;11.918;2023-02-01T06:21:00;4.73;;;4.23;;
13218;SDS011;6674;49.152;11.918;2023-02-01T06:23:29;4.20;;;3.80;;
13218;SDS011;6674;49.152;11.918;2023-02-01T06:26:00;4.40;;;4.00;;
13218;SDS011;6674;49.152;11.918;2023-02-01T06:28:28;4.37;;;3.97;;
13218;SDS011;6674;49.152;11.918;2023-02-01T06:30:55;4.30;;;4.00;;
13218;SDS011;6674;49.152;11.918;2023-02-01T06:33:23;4.53;;;4.13;;
13218;SDS011;6674;49.152;11.918;2023-02-01T06:35:56;5.43;;;4.57;;
13218;SDS011;6674;49.152;11.918;2023-02-01T06:38:24;4.30;;;3.90;;
13218;SDS011;6674;49.152;11.918;2023-02-01T06:40:53;4.53;;;4.13;;
13218;SDS011;6674;49.152;11.918;2023-02-01T06:43:20;4.80;;;4.23;;
13218;SDS011;6674;49.152;11.918;2023-02-01T06:45:47;4.50;;;4.10;;
13218;SDS011;6674;49.152;11.918;2023-02-01T06:48:13;4.43;;;3.63;;
13218;SDS011;6674;49.152;11.918;2023-02-01T06:50:40;4.20;;;3.80;;
13218;SDS011;6674;49.152;11.918;2023-02-01T06:53:07;4.20;;;3.80;;
13218;SDS011;6674;49.152;11.918;2023-02-01T06:55:33;4.37;;;3.97;;
13218;SDS011;6674;49.152;11.918;2023-02-01T06:58:02;4.27;;;3.80;;
13218;SDS011;6674;49.152;11.918;2023-02-01T07:00:29;3.50;;;3.20;;
13218;SDS011;6674;49.152;11.918;2023-02-01T07:02:56;3.30;;;3.00;;
13218;SDS011;6674;49.152;11.918;2023-02-01T07:05:24;3.57;;;3.33;;
13218;SDS011;6674;49.152;11.918;2023-02-01T07:07:50;4.20;;;3.80;;
13218;SDS011;6674;49.152;11.918;2023-02-01T07:10:17;3.07;;;2.87;;
13218;SDS011;6674;49.152;11.918;2023-02-01T07:12:45;3.53;;;3.23;;
13218;SDS011;6674;49.152;11.918;2023-02-01T07:15:13;2.97;;;2.77;;
13218;SDS011;6674;49.152;11.918;2023-02-01T07:17:39;3.03;;;2.73;;
13218;SDS011;6674;49.152;11.918;2023-02-01T07:20:07;3.27;;;2.97;;
13218;SDS011;6674;49.152;11.918;2023-02-01T07:22:34;4.33;;;2.93;;
13218;SDS011;6674;49.152;11.918;2023-02-01T07:25:01;3.40;;;3.10;;
13218;SDS011;6674;49.152;11.918;2023-02-01T07:27:27;3.93;;;3.57;;
13218;SDS011;6674;49.152;11.918;2023-02-01T07:29:54;3.30;;;3.00;;
13218;SDS011;6674;49.152;11.918;2023-02-01T07:32:23;3.70;;;3.40;;
13218;SDS011;6674;49.152;11.918;2023-02-01T07:34:49;4.30;;;3.70;;
13218;SDS011;6674;49.152;11.918;2023-02-01T07:37:16;3.83;;;3.53;;
13218;SDS011;6674;49.152;11.918;2023-02-01T07:39:43;3.50;;;3.20;;
13218;SDS011;6674;49.152;11.918;2023-02-01T07:42:09;3.40;;;3.10;;
13218;SDS011;6674;49.152;11.918;2023-02-01T07:44:36;4.23;;;3.83;;
13218;SDS011;6674;49.152;11.918;2023-02-01T07:47:03;3.00;;;2.80;;
13218;SDS011;6674;49.152;11.918;2023-02-01T07:49:32;4.53;;;4.13;;
13218;SDS011;6674;49.152;11.918;2023-02-01T07:51:58;4.23;;;3.83;;
13218;SDS011;6674;49.152;11.918;2023-02-01T07:54:27;4.40;;;4.00;;
13218;SDS011;6674;49.152;11.918;2023-02-01T07:56:53;4.47;;;4.07;;
13218;SDS011;6674;49.152;11.918;2023-02-01T07:59:20;4.50;;;4.10;;
13218;SDS011;6674;49.152;11.918;2023-02-01T08:01:47;4.70;;;4.30;;
13218;SDS011;6674;49.152;11.918;2023-02-01T08:04:13;7.23;;;4.70;;
13218;SDS011;6674;49.152;11.918;2023-02-01T08:06:41;5.83;;;4.60;;
13218;SDS011;6674;49.152;11.918;2023-02-01T08:09:08;6.37;;;4.57;;
13218;SDS011;6674;49.152;11.918;2023-02-01T08:11:36;5.70;;;4.87;;
13218;SDS011;6674;49.152;11.918;2023-02-01T08:14:05;4.80;;;4.30;;
13218;SDS011;6674;49.152;11.918;2023-02-01T08:16:32;6.20;;;4.93;;
13218;SDS011;6674;49.152;11.918;2023-02-01T08:19:03;5.57;;;5.07;;
13218;SDS011;6674;49.152;11.918;2023-02-01T08:21:29;5.97;;;5.37;;
13218;SDS011;6674;49.152;11.918;2023-02-01T08:24:03;5.30;;;4.87;;
13218;SDS011;6674;49.152;11.918;2023-02-01T08:26:31;7.37;;;4.80;;
13218;SDS011;6674;49.152;11.918;2023-02-01T08:28:58;6.50;;;5.23;;
13218;SDS011;6674;49.152;11.918;2023-02-01T08:31:28;7.37;;;4.97;;
13218;SDS011;6674;49.152;11.918;2023-02-01T08:33:57;5.90;;;4.30;;
13218;SDS011;6674;49.152;11.918;2023-02-01T08:36:26;5.73;;;4.37;;
13218;SDS011;6674;49.152;11.918;2023-02-01T08:38:53;5.03;;;4.07;;
13218;SDS011;6674;49.152;11.918;2023-02-01T08:41:22;6.47;;;4.13;;
13218;SDS011;6674;49.152;11.918;2023-02-01T08:43:51;5.57;;;4.30;;
13218;SDS011;6674;49.152;11.918;2023-02-01T08:46:19;4.70;;;3.90;;
13218;SDS011;6674;49.152;11.918;2023-02-01T08:48:46;6.53;;;4.20;;
13218;SDS011;6674;49.152;11.918;2023-02-01T08:51:14;5.77;;;4.53;;
13218;SDS011;6674;49.152;11.918;2023-02-01T08:53:42;5.03;;;4.50;;
13218;SDS011;6674;49.152;11.918;2023-02-01T08:56:09;6.23;;;4.47;;
13218;SDS011;6674;49.152;11.918;2023-02-01T08:58:37;4.93;;;3.63;;
13218;SDS011;6674;49.152;11.918;2023-02-01T09:01:04;6.07;;;4.20;;
13218;SDS011;6674;49.152;11.918;2023-02-01T09:03:31;5.47;;;4.00;;
13218;SDS011;6674;49.152;11.918;2023-02-01T09:06:01;5.67;;;3.90;;
13218;SDS011;6674;49.152;11.918;2023-02-01T09:08:28;4.90;;;3.70;;
13218;SDS011;6674;49.152;11.918;2023-02-01T09:10:58;5.90;;;3.67;;
13218;SDS011;6674;49.152;11.918;2023-02-01T09:13:25;5.13;;;3.43;;
13218;SDS011;6674;49.152;11.918;2023-02-01T09:15:53;3.90;;;3.00;;
13218;SDS011;6674;49.152;11.918;2023-02-01T09:18:20;5.73;;;3.23;;
13218;SDS011;6674;49.152;11.918;2023-02-01T09:20:46;5.07;;;3.07;;
13218;SDS011;6674;49.152;11.918;2023-02-01T09:23:13;5.73;;;3.43;;
13218;SDS011;6674;49.152;11.918;2023-02-01T09:25:40;5.53;;;3.00;;
13218;SDS011;6674;49.152;11.918;2023-02-01T09:28:06;6.70;;;3.17;;
13218;SDS011;6674;49.152;11.918;2023-02-01T09:30:34;5.33;;;3.30;;
13218;SDS011;6674;49.152;11.918;2023-02-01T09:33:03;5.60;;;4.13;;
13218;SDS011;6674;49.152;11.918;2023-02-01T09:35:30;4.67;;;3.53;;
13218;SDS011;6674;49.152;11.918;2023-02-01T09:37:58;5.80;;;3.93;;
13218;SDS011;6674;49.152;11.918;2023-02-01T09:40:24;6.27;;;3.50;;
13218;SDS011;6674;49.152;11.918;2023-02-01T09:43:00;5.87;;;3.80;;
13218;SDS011;6674;49.152;11.918;2023-02-01T09:45:39;7.17;;;3.37;;
13218;SDS011;6674;49.152;11.918;2023-02-01T09:48:17;5.20;;;3.77;;
13218;SDS011;6674;49.152;11.918;2023-02-01T09:50:48;5.47;;;3.73;;
13218;SDS011;6674;49.152;11.918;2023-02-01T09:53:20;4.63;;;3.67;;
13218;SDS011;6674;49.152;11.918;2023-02-01T09:55:53;4.87;;;3.73;;
13218;SDS011;6674;49.152;11.918;2023-02-01T09:58:24;5.57;;;4.07;;
13218;SDS011;6674;49.152;11.918;2023-02-01T10:00:56;5.77;;;3.83;;
13218;SDS011;6674;49.152;11.918;2023-02-01T10:03:27;6.30;;;4.10;;
13218;SDS011;6674;49.152;11.918;2023-02-01T10:06:04;6.97;;;4.13;;
13218;SDS011;6674;49.152;11.918;2023-02-01T10:08:55;5.07;;;3.93;;
13218;SDS011;6674;49.152;11.918;2023-02-01T10:11:39;6.10;;;4.03;;
13218;SDS011;6674;49.152;11.918;2023-02-01T10:14:20;6.00;;;4.37;;
13218;SDS011;6674;49.152;11.918;2023-02-01T10:17:04;6.83;;;4.60;;
13218;SDS011;6674;49.152;11.918;2023-02-01T10:19:42;6.40;;;4.50;;
13218;SDS011;6674;49.152;11.918;2023-02-01T10:22:17;5.50;;;4.50;;
13218;SDS011;6674;49.152;11.918;2023-02-01T10:24:49;8.07;;;4.67;;
13218;SDS011;6674;49.152;11.918;2023-02-01T10:27:25;6.80;;;4.43;;
13218;SDS011;6674;49.152;11.918;2023-02-01T10:29:59;7.87;;;4.57;;
13218;SDS011;6674;49.152;11.918;2023-02-01T10:32:33;8.33;;;4.70;;
13218;SDS011;6674;49.152;11.918;2023-02-01T10:35:05;7.20;;;4.20;;
13218;SDS011;6674;49.152;11.918;2023-02-01T10:37:39;7.60;;;4.70;;
13218;SDS011;6674;49.152;11.918;2023-02-01T10:40:12;6.97;;;4.30;;
13218;SDS011;6674;49.152;11.918;2023-02-01T10:42:43;5.73;;;3.80;;
13218;SDS011;6674;49.152;11.918;2023-02-01T10:45:13;6.10;;;3.60;;
13218;SDS011;6674;49.152;11.918;2023-02-01T10:47:42;5.13;;;2.80;;
13218;SDS011;6674;49.152;11.918;2023-02-01T10:50:15;3.63;;;2.50;;
13218;SDS011;6674;49.152;11.918;2023-02-01T10:52:46;4.93;;;3.10;;
13218;SDS011;6674;49.152;11.918;2023-02-01T10:55:28;5.57;;;2.93;;
13218;SDS011;6674;49.152;11.918;2023-02-01T10:57:59;6.13;;;3.27;;
13218;SDS011;6674;49.152;11.918;2023-02-01T11:00:26;5.53;;;3.47;;
13218;SDS011;6674;49.152;11.918;2023-02-01T11:02:55;5.27;;;3.20;;
13218;SDS011;6674;49.152;11.918;2023-02-01T11:05:23;8.07;;;3.47;;
13218;SDS011;6674;49.152;11.918;2023-02-01T11:07:52;6.90;;;3.37;;
13218;SDS011;6674;49.152;11.918;2023-02-01T11:10:34;6.33;;;3.10;;
13218;SDS011;6674;49.152;11.918;2023-02-01T11:13:03;7.13;;;3.43;;
13218;SDS011;6674;49.152;11.918;2023-02-01T11:15:31;4.97;;;3.23;;
13218;SDS011;6674;49.152;11.918;2023-02-01T11:18:12;8.80;;;3.73;;
13218;SDS011;6674;49.152;11.918;2023-02-01T11:20:43;7.07;;;3.67;;
13218;SDS011;6674;49.152;11.918;2023-02-01T11:23:15;8.83;;;3.83;;
13218;SDS011;6674;49.152;11.918;2023-02-01T11:25:47;7.40;;;3.10;;
13218;SDS011;6674;49.152;11.918;2023-02-01T11:28:15;7.43;;;3.97;;
13218;SDS011;6674;49.152;11.918;2023-02-01T11:30:44;5.83;;;3.20;;
13218;SDS011;6674;49.152;11.918;2023-02-01T11:33:15;7.03;;;3.20;;
13218;SDS011;6674;49.152;11.918;2023-02-01T11:35:46;6.80;;;3.00;;
13218;SDS011;6674;49.152;11.918;2023-02-01T11:38:19;5.90;;;2.73;;
13218;SDS011;6674;49.152;11.918;2023-02-01T11:40:48;6.80;;;3.43;;
13218;SDS011;6674;49.152;11.918;2023-02-01T11:43:16;8.20;;;3.30;;
13218;SDS011;6674;49.152;11.918;2023-02-01T11:45:53;6.83;;;2.93;;
13218;SDS011;6674;49.152;11.918;2023-02-01T11:48:21;6.67;;;2.90;;
13218;SDS011;6674;49.152;11.918;2023-02-01T11:50:52;5.73;;;2.90;;
13218;SDS011;6674;49.152;11.918;2023-02-01T11:53:32;6.47;;;3.00;;
13218;SDS011;6674;49.152;11.918;2023-02-01T11:56:11;5.67;;;3.00;;
13218;SDS011;6674;49.152;11.918;2023-02-01T11:58:50;6.07;;;3.00;;
13218;SDS011;6674;49.152;11.918;2023-02-01T12:01:32;5.67;;;2.73;;
13218;SDS011;6674;49.152;11.918;2023-02-01T12:04:13;5.50;;;2.67;;
13218;SDS011;6674;49.152;11.918;2023-02-01T12:07:11;6.50;;;2.70;;
13218;SDS011;6674;49.152;11.918;2023-02-01T12:09:45;4.17;;;2.30;;
13218;SDS011;6674;49.152;11.918;2023-02-01T12:12:24;6.20;;;2.33;;
13218;SDS011;6674;49.152;11.918;2023-02-01T12:14:59;6.13;;;2.60;;
13218;SDS011;6674;49.152;11.918;2023-02-01T12:17:43;6.30;;;2.60;;
13218;SDS011;6674;49.152;11.918;2023-02-01T12:20:26;3.93;;;2.30;;
13218;SDS011;6674;49.152;11.918;2023-02-01T12:23:10;5.53;;;2.47;;
13218;SDS011;6674;49.152;11.918;2023-02-01T12:25:56;4.07;;;2.30;;
13218;SDS011;6674;49.152;11.918;2023-02-01T12:28:35;5.07;;;2.20;;
13218;SDS011;6674;49.152;11.918;2023-02-01T12:31:29;4.77;;;2.67;;
13218;SDS011;6674;49.152;11.918;2023-02-01T12:34:10;4.80;;;2.63;;
13218;SDS011;6674;49.152;11.918;2023-02-01T12:36:56;5.00;;;2.90;;
13218;SDS011;6674;49.152;11.918;2023-02-01T12:39:35;4.63;;;2.70;;
13218;SDS011;6674;49.152;11.918;2023-02-01T12:42:08;8.00;;;2.77;;
13218;SDS011;6674;49.152;11.918;2023-02-01T12:44:43;6.80;;;3.10;;
13218;SDS011;6674;49.152;11.918;2023-02-01T12:47:15;5.23;;;2.47;;
13218;SDS011;6674;49.152;11.918;2023-02-01T12:49:47;7.33;;;3.30;;
13218;SDS011;6674;49.152;11.918;2023-02-01T12:52:21;4.97;;;2.60;;
13218;SDS011;6674;49.152;11.918;2023-02-01T12:54:55;3.37;;;2.30;;
13218;SDS011;6674;49.152;11.918;2023-02-01T12:57:27;3.63;;;2.57;;
13218;SDS011;6674;49.152;11.918;2023-02-01T13:00:01;3.90;;;2.60;;
13218;SDS011;6674;49.152;11.918;2023-02-01T13:02:35;3.97;;;2.70;;
13218;SDS011;6674;49.152;11.918;2023-02-01T13:05:12;4.17;;;2.60;;
13218;SDS011;6674;49.152;11.918;2023-02-01T13:07:43;5.00;;;2.20;;
13218;SDS011;6674;49.152;11.918;2023-02-01T13:10:16;4.80;;;2.70;;
13218;SDS011;6674;49.152;11.918;2023-02-01T13:12:51;5.17;;;2.70;;
13218;SDS011;6674;49.152;11.918;2023-02-01T13:15:23;4.73;;;2.80;;
13218;SDS011;6674;49.152;11.918;2023-02-01T13:17:54;5.87;;;2.73;;
13218;SDS011;6674;49.152;11.918;2023-02-01T13:20:25;6.37;;;2.60;;
13218;SDS011;6674;49.152;11.918;2023-02-01T13:22:58;6.03;;;2.70;;
13218;SDS011;6674;49.152;11.918;2023-02-01T13:25:31;5.23;;;2.53;;
13218;SDS011;6674;49.152;11.918;2023-02-01T13:28:05;6.03;;;2.80;;
13218;SDS011;6674;49.152;11.918;2023-02-01T13:30:40;5.10;;;2.60;;
13218;SDS011;6674;49.152;11.918;2023-02-01T13:33:32;6.07;;;2.80;;
13218;SDS011;6674;49.152;11.918;2023-02-01T13:36:15;7.70;;;3.20;;
13218;SDS011;6674;49.152;11.918;2023-02-01T13:41:55;7.47;;;2.90;;
13218;SDS011;6674;49.152;11.918;2023-02-01T13:44:26;6.60;;;2.93;;
13218;SDS011;6674;49.152;11.918;2023-02-01T13:46:56;7.70;;;2.80;;
13218;SDS011;6674;49.152;11.918;2023-02-01T13:49:25;5.73;;;3.20;;
13218;SDS011;6674;49.152;11.918;2023-02-01T13:51:55;6.23;;;2.97;;
13218;SDS011;6674;49.152;11.918;2023-02-01T13:54:27;6.93;;;3.40;;
13218;SDS011;6674;49.152;11.918;2023-02-01T13:56:59;7.40;;;2.90;;
13218;SDS011;6674;49.152;11.918;2023-02-01T13:59:48;4.77;;;2.40;;
13218;SDS011;6674;49.152;11.918;2023-02-01T14:08:37;7.10;;;2.70;;
13218;SDS011;6674;49.152;11.918;2023-02-01T14:23:22;6.97;;;3.00;;
13218;SDS011;6674;49.152;11.918;2023-02-01T14:26:05;6.40;;;2.40;;
13218;SDS011;6674;49.152;11.918;2023-02-01T14:28:40;7.73;;;2.70;;
13218;SDS011;6674;49.152;11.918;2023-02-01T14:31:15;6.53;;;2.60;;
13218;SDS011;6674;49.152;11.918;2023-02-01T14:33:53;9.20;;;2.63;;
13218;SDS011;6674;49.152;11.918;2023-02-01T14:36:23;6.43;;;2.50;;
13218;SDS011;6674;49.152;11.918;2023-02-01T14:38:50;5.67;;;2.50;;
13218;SDS011;6674;49.152;11.918;2023-02-01T14:41:28;5.80;;;2.70;;
13218;SDS011;6674;49.152;11.918;2023-02-01T14:44:21;7.03;;;2.80;;
13218;SDS011;6674;49.152;11.918;2023-02-01T14:49:58;7.30;;;2.90;;
13218;SDS011;6674;49.152;11.918;2023-02-01T14:52:30;9.27;;;2.70;;
13218;SDS011;6674;49.152;11.918;2023-02-01T14:55:03;7.87;;;3.07;;
13218;SDS011;6674;49.152;11.918;2023-02-01T14:57:36;8.77;;;2.90;;
13218;SDS011;6674;49.152;11.918;2023-02-01T15:00:06;5.97;;;2.60;;
13218;SDS011;6674;49.152;11.918;2023-02-01T15:02:47;7.97;;;2.80;;
13218;SDS011;6674;49.152;11.918;2023-02-01T15:08:05;9.37;;;2.90;;
13218;SDS011;6674;49.152;11.918;2023-02-01T15:10:49;5.97;;;2.27;;
13218;SDS011;6674;49.152;11.918;2023-02-01T15:13:20;5.07;;;2.37;;
13218;SDS011;6674;49.152;11.918;2023-02-01T15:18:39;9.87;;;2.47;;
13218;SDS011;6674;49.152;11.918;2023-02-01T15:21:14;5.67;;;2.13;;
13218;SDS011;6674;49.152;11.918;2023-02-01T15:23:43;6.00;;;2.27;;
13218;SDS011;6674;49.152;11.918;2023-02-01T15:26:23;6.40;;;2.80;;
13218;SDS011;6674;49.152;11.918;2023-02-01T15:28:51;6.43;;;2.57;;
13218;SDS011;6674;49.152;11.918;2023-02-01T15:31:30;6.50;;;2.57;;
13218;SDS011;6674;49.152;11.918;2023-02-01T15:33:59;8.53;;;2.47;;
13218;SDS011;6674;49.152;11.918;2023-02-01T15:36:27;7.27;;;2.87;;
13218;SDS011;6674;49.152;11.918;2023-02-01T15:41:43;7.33;;;2.33;;
13218;SDS011;6674;49.152;11.918;2023-02-01T15:44:15;5.20;;;2.70;;
13218;SDS011;6674;49.152;11.918;2023-02-01T15:46:47;7.90;;;3.23;;
13218;SDS011;6674;49.152;11.918;2023-02-01T15:49:18;8.67;;;3.10;;